Time;durP1;ratioP1;P1;durP2;ratioP2;P2;SDS_P1;SDS_P2;PMS_P1;PMS_P2;Temp;Humidity;BMP_temperature;BMP_pressure;BME280_temperature;BME280_humidity;BME280_pressure;Samples;Min_cycle;Max_cycle;Signal;HPM_P1;HPM_P2
2022/04/30 00:02:24;;;;;;;12.52;7.72;;;;;;;;;;5030688;28;20022;-71
2022/04/30 00:04:50;;;;;;;12.02;7.28;;;;;;;;;;5015121;28;20033;-71
2022/04/30 00:07:18;;;;;;;12.60;7.70;;;;;;;;;;5019409;28;20076;-71
2022/04/30 00:09:44;;;;;;;8.70;6.22;;;;;;;;;;5015613;28;20064;-70
2022/04/30 00:12:10;;;;;;;13.70;7.20;;;;;;;;;;5010209;28;20100;-71
2022/04/30 00:14:37;;;;;;;13.20;7.95;;;;;;;;;;5015696;28;20017;-70
2022/04/30 00:17:03;;;;;;;15.95;8.27;;;;;;;;;;5028211;28;20049;-71
2022/04/30 00:19:29;;;;;;;14.27;7.85;;;;;;;;;;4996733;28;20022;-71
2022/04/30 00:21:56;;;;;;;14.40;8.60;;;;;;;;;;5012488;28;20088;-71
2022/04/30 00:24:22;;;;;;;15.75;8.02;;;;;;;;;;5008298;28;20045;-70
2022/04/30 00:26:48;;;;;;;12.57;7.90;;;;;;;;;;5019152;28;20024;-70
2022/04/30 00:29:15;;;;;;;16.08;7.35;;;;;;;;;;5011173;28;20490;-70
2022/04/30 00:31:41;;;;;;;15.00;8.00;;;;;;;;;;5022750;28;20079;-71
2022/04/30 00:34:07;;;;;;;12.85;8.25;;;;;;;;;;5027273;28;20022;-71
2022/04/30 00:36:34;;;;;;;16.95;7.78;;;;;;;;;;5009555;28;20103;-71
2022/04/30 00:39:00;;;;;;;12.40;7.50;;;;;;;;;;5025972;28;20037;-71
2022/04/30 00:41:26;;;;;;;14.30;7.82;;;;;;;;;;5009341;28;20113;-71
2022/04/30 00:43:53;;;;;;;17.73;8.57;;;;;;;;;;5016907;28;20026;-71
2022/04/30 00:46:20;;;;;;;17.73;8.57;;;;;;;;;;5011832;28;20025;-70
2022/04/30 00:48:47;;;;;;;14.05;8.40;;;;;;;;;;5014118;28;20101;-70
2022/04/30 00:51:14;;;;;;;14.70;8.27;;;;;;;;;;5027301;28;20522;-71
2022/04/30 00:53:42;;;;;;;12.23;7.47;;;;;;;;;;4996756;28;20048;-71
2022/04/30 00:56:13;;;;;;;14.75;8.02;;;;;;;;;;5011148;28;20022;-71
2022/04/30 00:58:45;;;;;;;11.95;7.15;;;;;;;;;;5009564;28;20030;-71
2022/04/30 01:01:11;;;;;;;12.32;7.22;;;;;;;;;;4996779;28;20025;-70
2022/04/30 01:03:37;;;;;;;15.65;8.57;;;;;;;;;;5008913;28;20022;-70
2022/04/30 01:06:05;;;;;;;20.65;8.88;;;;;;;;;;5008752;28;20018;-70
2022/04/30 01:08:31;;;;;;;13.88;7.47;;;;;;;;;;5024394;28;20021;-71
2022/04/30 01:10:57;;;;;;;14.80;8.63;;;;;;;;;;5040852;28;20061;-70
2022/04/30 01:13:23;;;;;;;14.00;7.78;;;;;;;;;;5028537;28;20032;-71
2022/04/30 01:15:50;;;;;;;16.88;8.07;;;;;;;;;;5035601;28;20018;-70
2022/04/30 01:18:16;;;;;;;12.15;7.70;;;;;;;;;;5036553;28;20017;-70
2022/04/30 01:20:51;;;;;;;14.88;8.82;;;;;;;;;;5028300;28;20072;-71
2022/04/30 01:23:18;;;;;;;14.15;7.88;;;;;;;;;;5010103;28;20561;-71
2022/04/30 01:25:44;;;;;;;13.05;7.93;;;;;;;;;;5006761;28;20030;-71
2022/04/30 01:28:11;;;;;;;14.32;8.05;;;;;;;;;;5034961;28;20024;-71
2022/04/30 01:30:37;;;;;;;19.75;8.15;;;;;;;;;;5034664;28;20028;-70
2022/04/30 01:38:33;;;;;;;13.07;7.78;;;;;;;;;;5031779;28;20040;-71
2022/04/30 01:41:00;;;;;;;12.80;7.53;;;;;;;;;;5010320;28;20033;-70
2022/04/30 01:43:26;;;;;;;15.55;7.75;;;;;;;;;;5028305;28;20096;-70
2022/04/30 01:45:53;;;;;;;13.27;8.38;;;;;;;;;;5042795;28;20028;-71
2022/04/30 01:48:20;;;;;;;10.40;6.82;;;;;;;;;;5039388;28;20597;-71
2022/04/30 01:50:46;;;;;;;12.52;7.45;;;;;;;;;;5041472;28;20025;-71
2022/04/30 01:53:12;;;;;;;15.00;5.90;;;;;;;;;;5034776;28;20052;-70
2022/04/30 01:55:39;;;;;;;10.15;6.55;;;;;;;;;;5047851;28;20459;-71
2022/04/30 01:58:05;;;;;;;10.63;6.82;;;;;;;;;;5047741;28;20116;-71
2022/04/30 02:00:31;;;;;;;19.98;6.95;;;;;;;;;;5028025;28;20032;-70
2022/04/30 02:03:08;;;;;;;12.55;7.10;;;;;;;;;;5028008;28;20071;-71
2022/04/30 02:05:35;;;;;;;13.10;7.20;;;;;;;;;;5027316;28;20025;-70
2022/04/30 02:08:06;;;;;;;13.20;7.93;;;;;;;;;;5012713;28;20034;-70
2022/04/30 02:10:34;;;;;;;9.85;6.80;;;;;;;;;;5023815;28;20028;-70
2022/04/30 02:13:00;;;;;;;15.90;8.15;;;;;;;;;;5031015;28;20029;-70
2022/04/30 02:18:35;;;;;;;8.82;5.88;;;;;;;;;;5032492;28;20063;-70
2022/04/30 02:21:06;;;;;;;13.25;6.57;;;;;;;;;;5032273;28;20056;-71
2022/04/30 02:23:33;;;;;;;10.18;6.68;;;;;;;;;;5019334;28;20036;-70
2022/04/30 02:26:04;;;;;;;11.95;6.82;;;;;;;;;;5001787;28;20471;-71
2022/04/30 02:28:30;;;;;;;9.90;6.13;;;;;;;;;;4993272;28;20030;-71
2022/04/30 02:30:56;;;;;;;11.25;6.57;;;;;;;;;;5027496;28;20026;-71
2022/04/30 02:33:22;;;;;;;12.77;6.40;;;;;;;;;;5027100;28;20022;-70
2022/04/30 02:35:48;;;;;;;18.00;6.78;;;;;;;;;;5019275;28;20474;-71
2022/04/30 02:38:15;;;;;;;18.83;6.63;;;;;;;;;;5019635;28;20084;-72
2022/04/30 02:40:41;;;;;;;10.32;7.20;;;;;;;;;;5019960;28;20026;-71
2022/04/30 02:43:09;;;;;;;10.63;6.35;;;;;;;;;;5005640;28;20023;-70
2022/04/30 02:45:36;;;;;;;15.38;7.72;;;;;;;;;;5029602;28;20029;-71
2022/04/30 02:48:03;;;;;;;14.43;7.40;;;;;;;;;;5021935;28;20095;-71
2022/04/30 02:50:30;;;;;;;13.38;7.57;;;;;;;;;;5028814;28;20033;-71
2022/04/30 02:52:56;;;;;;;12.82;6.82;;;;;;;;;;5025325;28;20067;-71
2022/04/30 02:55:23;;;;;;;12.43;6.53;;;;;;;;;;5029579;28;20029;-71
2022/04/30 03:00:39;;;;;;;12.95;7.00;;;;;;;;;;5025943;28;20065;-71
2022/04/30 03:03:09;;;;;;;10.50;5.88;;;;;;;;;;5026697;28;20017;-71
2022/04/30 03:05:35;;;;;;;11.30;6.80;;;;;;;;;;5015579;28;20092;-70
2022/04/30 03:08:04;;;;;;;12.57;7.28;;;;;;;;;;5013721;28;20042;-71
2022/04/30 03:10:31;;;;;;;11.10;7.05;;;;;;;;;;5003256;28;20125;-71
2022/04/30 03:12:57;;;;;;;11.02;6.20;;;;;;;;;;5001419;28;20125;-70
2022/04/30 03:15:25;;;;;;;11.98;7.38;;;;;;;;;;5011216;28;20501;-70
2022/04/30 03:23:20;;;;;;;12.45;6.93;;;;;;;;;;5023337;28;20054;-71
2022/04/30 03:25:46;;;;;;;13.23;7.43;;;;;;;;;;5025733;28;20026;-71
2022/04/30 03:28:12;;;;;;;16.50;7.25;;;;;;;;;;5027480;28;20865;-70
2022/04/30 03:30:38;;;;;;;15.48;7.00;;;;;;;;;;5029317;28;20196;-71
2022/04/30 03:33:04;;;;;;;12.80;7.70;;;;;;;;;;5003821;28;20581;-70
2022/04/30 03:35:30;;;;;;;10.82;7.15;;;;;;;;;;5021328;28;20025;-71
2022/04/30 03:37:56;;;;;;;14.20;6.63;;;;;;;;;;5014940;28;20118;-72
2022/04/30 03:40:22;;;;;;;13.13;7.25;;;;;;;;;;5026662;28;20144;-71
2022/04/30 03:42:48;;;;;;;18.70;6.82;;;;;;;;;;5018995;28;20456;-71
2022/04/30 03:45:14;;;;;;;10.57;6.68;;;;;;;;;;5027493;28;20529;-72
2022/04/30 03:47:41;;;;;;;10.55;6.70;;;;;;;;;;5025881;28;20530;-71
2022/04/30 03:50:07;;;;;;;13.70;6.90;;;;;;;;;;5026507;28;20163;-70
2022/04/30 03:52:33;;;;;;;13.15;7.03;;;;;;;;;;5020817;28;20029;-71
2022/04/30 03:54:59;;;;;;;17.77;7.35;;;;;;;;;;5027508;28;20144;-71
2022/04/30 03:57:28;;;;;;;11.60;6.90;;;;;;;;;;5018645;28;20180;-71
2022/04/30 03:59:54;;;;;;;11.15;6.38;;;;;;;;;;5016157;28;20021;-71
2022/04/30 04:02:20;;;;;;;13.70;7.13;;;;;;;;;;5028603;28;20021;-70
2022/04/30 04:04:46;;;;;;;12.55;6.82;;;;;;;;;;5011293;28;20045;-70
2022/04/30 04:07:12;;;;;;;11.20;6.57;;;;;;;;;;5018928;28;20034;-71
2022/04/30 04:09:38;;;;;;;13.15;6.95;;;;;;;;;;5020625;28;20364;-71
2022/04/30 04:12:05;;;;;;;15.98;7.03;;;;;;;;;;5012377;28;20017;-71
2022/04/30 04:20:00;;;;;;;13.73;7.65;;;;;;;;;;5025441;28;20040;-70
2022/04/30 04:22:26;;;;;;;10.77;6.20;;;;;;;;;;5029991;28;20029;-70
2022/04/30 04:27:36;;;;;;;13.98;6.47;;;;;;;;;;5014194;28;20056;-70
2022/04/30 04:30:03;;;;;;;17.45;7.05;;;;;;;;;;5022348;28;20673;-71
2022/04/30 04:32:29;;;;;;;12.73;6.70;;;;;;;;;;5028374;28;20018;-70
2022/04/30 04:34:55;;;;;;;12.60;7.20;;;;;;;;;;5010933;28;20388;-71
2022/04/30 04:37:21;;;;;;;12.30;6.68;;;;;;;;;;5028710;28;20067;-71
2022/04/30 04:39:47;;;;;;;15.35;6.45;;;;;;;;;;5016153;28;20049;-71
2022/04/30 04:42:13;;;;;;;24.13;7.75;;;;;;;;;;5011861;28;20557;-70
2022/04/30 04:44:39;;;;;;;13.02;6.90;;;;;;;;;;5030148;28;20033;-71
2022/04/30 04:47:05;;;;;;;12.85;6.95;;;;;;;;;;5021450;28;20021;-71
2022/04/30 04:49:32;;;;;;;14.70;7.18;;;;;;;;;;5020140;28;20494;-71
2022/04/30 04:52:01;;;;;;;11.73;6.90;;;;;;;;;;5029382;28;20028;-71
2022/04/30 04:54:27;;;;;;;13.63;7.30;;;;;;;;;;5022569;28;20040;-71
2022/04/30 04:56:53;;;;;;;11.75;6.63;;;;;;;;;;5029155;28;20108;-70
2022/04/30 04:59:19;;;;;;;9.20;5.72;;;;;;;;;;5028044;28;20025;-70
2022/04/30 05:01:48;;;;;;;12.77;6.40;;;;;;;;;;5007198;28;20045;-71
2022/04/30 05:04:16;;;;;;;11.77;6.15;;;;;;;;;;5002082;28;20418;-71
2022/04/30 05:06:44;;;;;;;11.82;6.03;;;;;;;;;;5027804;28;20029;-71
2022/04/30 05:09:10;;;;;;;13.27;7.10;;;;;;;;;;5016339;28;20405;-71
2022/04/30 05:11:36;;;;;;;18.45;7.43;;;;;;;;;;5010211;28;20021;-70
2022/04/30 05:14:02;;;;;;;13.82;6.55;;;;;;;;;;5020174;28;20054;-71
2022/04/30 05:16:28;;;;;;;14.35;7.40;;;;;;;;;;5008964;28;20037;-71
2022/04/30 05:18:54;;;;;;;13.55;7.65;;;;;;;;;;5022666;28;20030;-70
2022/04/30 05:21:56;;;;;;;9.63;6.15;;;;;;;;;;5031533;28;20108;-70
2022/04/30 05:27:26;;;;;;;13.90;6.90;;;;;;;;;;5049305;23;20064;-73
2022/04/30 05:29:52;;;;;;;11.63;6.57;;;;;;;;;;5029005;28;20021;-73
2022/04/30 05:32:18;;;;;;;12.48;6.40;;;;;;;;;;5047190;28;20520;-73
2022/04/30 05:34:44;;;;;;;17.25;6.65;;;;;;;;;;5039171;28;20067;-74
2022/04/30 05:37:10;;;;;;;11.30;6.50;;;;;;;;;;5025491;28;20104;-73
2022/04/30 05:39:36;;;;;;;16.50;6.72;;;;;;;;;;5039803;28;20965;-74
2022/04/30 05:42:02;;;;;;;10.85;6.80;;;;;;;;;;5027616;28;20045;-73
2022/04/30 05:44:28;;;;;;;11.23;7.20;;;;;;;;;;5024773;28;20487;-73
2022/04/30 05:46:54;;;;;;;14.18;8.02;;;;;;;;;;5026455;28;20021;-73
2022/04/30 05:49:20;;;;;;;12.85;7.97;;;;;;;;;;5026867;28;20032;-73
2022/04/30 05:51:46;;;;;;;12.43;7.43;;;;;;;;;;5027358;28;20378;-73
2022/04/30 05:54:12;;;;;;;15.25;7.70;;;;;;;;;;5028156;28;20030;-73
2022/04/30 05:56:38;;;;;;;11.55;7.65;;;;;;;;;;5033314;28;20059;-73
2022/04/30 05:59:04;;;;;;;16.25;8.35;;;;;;;;;;5047627;28;20071;-73
2022/04/30 06:01:30;;;;;;;15.45;7.85;;;;;;;;;;5037817;28;20096;-73
2022/04/30 06:03:56;;;;;;;18.55;8.32;;;;;;;;;;5030206;28;20017;-73
2022/04/30 06:06:22;;;;;;;13.50;8.18;;;;;;;;;;5038568;28;20330;-73
2022/04/30 06:08:48;;;;;;;12.07;7.72;;;;;;;;;;5047187;28;20021;-73
2022/04/30 06:11:14;;;;;;;24.58;8.60;;;;;;;;;;5038015;28;20061;-73
2022/04/30 06:13:40;;;;;;;13.20;7.85;;;;;;;;;;5038932;28;20616;-73
2022/04/30 06:16:06;;;;;;;15.02;8.90;;;;;;;;;;5039258;28;20282;-73
2022/04/30 06:18:32;;;;;;;16.05;8.98;;;;;;;;;;5029822;28;20021;-73
2022/04/30 06:20:58;;;;;;;13.77;8.35;;;;;;;;;;5045141;28;20049;-73
2022/04/30 06:23:24;;;;;;;18.63;9.43;;;;;;;;;;5045594;28;20462;-73
2022/04/30 06:25:50;;;;;;;17.98;10.02;;;;;;;;;;5037461;28;20056;-73
2022/04/30 06:28:16;;;;;;;17.25;9.93;;;;;;;;;;5046844;28;20056;-74
2022/04/30 06:30:42;;;;;;;19.88;10.00;;;;;;;;;;5047137;28;20075;-73
2022/04/30 06:33:09;;;;;;;25.15;9.85;;;;;;;;;;5046771;28;20027;-67
2022/04/30 06:35:37;;;;;;;22.70;11.02;;;;;;;;;;5044417;28;20532;-67
2022/04/30 06:38:03;;;;;;;19.02;11.32;;;;;;;;;;5041599;28;20388;-66
2022/04/30 06:40:29;;;;;;;21.55;11.98;;;;;;;;;;5042403;28;20116;-67
2022/04/30 06:42:55;;;;;;;27.30;11.85;;;;;;;;;;5036432;28;20128;-67
2022/04/30 06:45:21;;;;;;;22.25;13.63;;;;;;;;;;5034937;28;20041;-67
2022/04/30 06:47:47;;;;;;;23.27;13.63;;;;;;;;;;5045314;28;20032;-67
2022/04/30 06:50:13;;;;;;;30.48;14.65;;;;;;;;;;5046735;28;20055;-67
2022/04/30 06:57:07;;;;;;;33.45;15.73;;;;;;;;;;5039064;28;20048;-67
2022/04/30 06:58:10;;;;;;;37.55;16.70;;;;;;;;;;5042803;28;20090;-67
2022/04/30 07:03:23;;;;;;;30.08;15.85;;;;;;;;;;5047119;28;20056;-67
2022/04/30 07:05:55;;;;;;;28.85;15.63;;;;;;;;;;5034416;28;20048;-67
2022/04/30 07:08:20;;;;;;;30.58;15.32;;;;;;;;;;5036038;28;20473;-67
2022/04/30 07:10:46;;;;;;;27.75;16.23;;;;;;;;;;5026608;28;20026;-66
2022/04/30 07:13:13;;;;;;;31.40;15.70;;;;;;;;;;5043118;28;20034;-66
2022/04/30 07:15:39;;;;;;;28.52;15.52;;;;;;;;;;5038242;28;20029;-67
2022/04/30 07:18:05;;;;;;;29.75;15.35;;;;;;;;;;5047248;28;20478;-66
2022/04/30 07:20:31;;;;;;;31.90;15.10;;;;;;;;;;5038786;28;20087;-66
2022/04/30 07:22:57;;;;;;;34.95;16.50;;;;;;;;;;5046985;28;20021;-66
2022/04/30 07:25:23;;;;;;;28.58;15.18;;;;;;;;;;5037985;28;20345;-67
2022/04/30 07:27:49;;;;;;;32.63;15.13;;;;;;;;;;5039232;28;20033;-67
2022/04/30 07:30:15;;;;;;;32.35;16.10;;;;;;;;;;5031497;28;20530;-67
2022/04/30 07:32:41;;;;;;;30.33;14.85;;;;;;;;;;5048209;28;20036;-66
2022/04/30 07:35:07;;;;;;;40.72;16.13;;;;;;;;;;5050125;28;20375;-67
2022/04/30 07:37:33;;;;;;;27.83;15.98;;;;;;;;;;5048335;28;20025;-67
2022/04/30 07:39:59;;;;;;;32.10;15.73;;;;;;;;;;5043923;28;20032;-67
2022/04/30 07:42:25;;;;;;;30.73;15.68;;;;;;;;;;5042893;28;20060;-66
2022/04/30 07:44:51;;;;;;;28.75;15.13;;;;;;;;;;5050210;28;20029;-67
2022/04/30 07:47:17;;;;;;;27.65;14.73;;;;;;;;;;5042139;28;20028;-67
2022/04/30 07:49:44;;;;;;;30.02;14.50;;;;;;;;;;5030452;28;20538;-68
2022/04/30 07:52:10;;;;;;;27.83;15.68;;;;;;;;;;5040596;28;20018;-66
2022/04/30 07:54:36;;;;;;;28.23;14.55;;;;;;;;;;5047551;28;20017;-66
2022/04/30 07:57:02;;;;;;;24.88;13.65;;;;;;;;;;5043281;28;20108;-67
2022/04/30 07:59:28;;;;;;;24.50;14.55;;;;;;;;;;5041560;28;20115;-67
2022/04/30 08:01:54;;;;;;;29.42;16.45;;;;;;;;;;5050669;28;20108;-67
2022/04/30 08:04:20;;;;;;;29.92;15.40;;;;;;;;;;5041732;28;20478;-67
2022/04/30 08:06:46;;;;;;;25.40;13.82;;;;;;;;;;5044817;28;20035;-67
2022/04/30 08:09:12;;;;;;;25.20;12.93;;;;;;;;;;5043845;28;20029;-68
2022/04/30 08:11:38;;;;;;;23.38;13.32;;;;;;;;;;5043005;28;20056;-66
2022/04/30 08:14:04;;;;;;;23.55;13.07;;;;;;;;;;5041951;28;20017;-67
2022/04/30 08:16:30;;;;;;;25.00;14.13;;;;;;;;;;5049217;28;20890;-67
2022/04/30 08:18:58;;;;;;;24.17;13.38;;;;;;;;;;5045636;28;20511;-66
2022/04/30 08:21:24;;;;;;;24.45;12.82;;;;;;;;;;5046310;28;20025;-67
2022/04/30 08:23:50;;;;;;;26.23;13.02;;;;;;;;;;5049923;28;20040;-67
2022/04/30 08:26:16;;;;;;;28.25;14.00;;;;;;;;;;5032849;28;20037;-67
2022/04/30 08:28:42;;;;;;;25.70;13.63;;;;;;;;;;5041404;28;20060;-67
2022/04/30 08:31:08;;;;;;;31.02;13.93;;;;;;;;;;5049819;28;20112;-67
2022/04/30 08:33:34;;;;;;;26.42;14.43;;;;;;;;;;5032929;28;20025;-67
2022/04/30 08:36:00;;;;;;;28.75;15.40;;;;;;;;;;5048852;28;20025;-66
2022/04/30 08:38:26;;;;;;;25.33;13.63;;;;;;;;;;5031156;28;20152;-66
2022/04/30 08:40:52;;;;;;;34.25;14.75;;;;;;;;;;5033605;28;20058;-67
2022/04/30 08:43:20;;;;;;;28.42;14.05;;;;;;;;;;5041876;28;20075;-67
2022/04/30 08:45:46;;;;;;;30.10;15.52;;;;;;;;;;5042278;28;20129;-67
2022/04/30 08:48:13;;;;;;;31.70;15.70;;;;;;;;;;5021106;28;20096;-67
2022/04/30 08:50:40;;;;;;;28.50;13.38;;;;;;;;;;5043814;28;20094;-67
2022/04/30 08:53:06;;;;;;;28.48;14.95;;;;;;;;;;5036496;28;20025;-66
2022/04/30 08:55:33;;;;;;;30.25;14.50;;;;;;;;;;5047151;28;20572;-67
2022/04/30 08:57:59;;;;;;;29.23;14.25;;;;;;;;;;5042093;28;20021;-67
2022/04/30 09:00:26;;;;;;;29.98;16.15;;;;;;;;;;5037592;28;20041;-67
2022/04/30 09:02:53;;;;;;;27.83;15.57;;;;;;;;;;5040466;28;20070;-66
2022/04/30 09:05:19;;;;;;;30.80;17.35;;;;;;;;;;5032845;28;20030;-67
2022/04/30 09:07:59;;;;;;;30.95;16.48;;;;;;;;;;5047482;28;20268;-67
2022/04/30 09:10:26;;;;;;;32.25;15.23;;;;;;;;;;5048403;28;20029;-67
2022/04/30 09:12:52;;;;;;;29.58;15.70;;;;;;;;;;5024807;28;20017;-68
2022/04/30 09:15:19;;;;;;;31.90;15.60;;;;;;;;;;5048445;28;20060;-66
2022/04/30 09:17:59;;;;;;;29.10;16.63;;;;;;;;;;5038507;28;20028;-67
2022/04/30 09:20:25;;;;;;;29.60;15.48;;;;;;;;;;5048064;28;20390;-67
2022/04/30 09:22:52;;;;;;;28.42;14.38;;;;;;;;;;5048120;28;20032;-67
2022/04/30 09:25:18;;;;;;;25.95;13.93;;;;;;;;;;5045814;28;20501;-69
2022/04/30 09:27:52;;;;;;;30.23;15.45;;;;;;;;;;5037174;28;20040;-67
2022/04/30 09:30:20;;;;;;;26.42;15.05;;;;;;;;;;5040591;28;20344;-67
2022/04/30 09:32:46;;;;;;;27.58;15.38;;;;;;;;;;5038467;28;20656;-67
2022/04/30 09:38:06;;;;;;;25.75;15.48;;;;;;;;;;5041648;28;20048;-66
2022/04/30 09:40:32;;;;;;;24.00;11.45;;;;;;;;;;5047661;28;20021;-66
2022/04/30 09:43:01;;;;;;;30.98;14.43;;;;;;;;;;5035944;28;20032;-67
2022/04/30 09:45:29;;;;;;;24.30;15.07;;;;;;;;;;5036101;28;20466;-67
2022/04/30 09:47:56;;;;;;;24.95;13.98;;;;;;;;;;5044007;28;20029;-68
2022/04/30 09:55:55;;;;;;;31.08;16.30;;;;;;;;;;5032013;28;20573;-67
2022/04/30 09:58:23;;;;;;;25.35;12.40;;;;;;;;;;5020864;28;20061;-67
2022/04/30 10:00:53;;;;;;;19.38;12.60;;;;;;;;;;5038739;28;20246;-67
2022/04/30 10:03:22;;;;;;;29.08;16.08;;;;;;;;;;5039543;28;20462;-67
2022/04/30 10:05:48;;;;;;;26.17;16.08;;;;;;;;;;5046802;28;20037;-67
2022/04/30 10:08:14;;;;;;;35.75;17.30;;;;;;;;;;5046523;28;20463;-68
2022/04/30 10:10:51;;;;;;;32.33;15.95;;;;;;;;;;5037045;28;20031;-67
2022/04/30 10:13:25;;;;;;;29.90;17.55;;;;;;;;;;5036705;28;20454;-67
2022/04/30 10:15:53;;;;;;;30.80;16.50;;;;;;;;;;5030774;28;20036;-67
2022/04/30 10:18:23;;;;;;;29.80;15.75;;;;;;;;;;5040743;28;20026;-68
2022/04/30 10:20:59;;;;;;;24.35;14.57;;;;;;;;;;5047389;28;20095;-66
2022/04/30 10:23:26;;;;;;;28.92;15.63;;;;;;;;;;5047332;28;20024;-67
2022/04/30 10:25:54;;;;;;;25.45;15.20;;;;;;;;;;5041649;28;20127;-67
2022/04/30 10:28:23;;;;;;;27.83;16.05;;;;;;;;;;5040947;28;20040;-67
2022/04/30 10:31:00;;;;;;;27.10;15.85;;;;;;;;;;5046052;28;20586;-67
2022/04/30 10:33:26;;;;;;;30.88;15.90;;;;;;;;;;5046003;28;20041;-67
2022/04/30 10:36:03;;;;;;;34.35;15.27;;;;;;;;;;5043985;28;20080;-66
2022/04/30 10:38:30;;;;;;;29.92;16.33;;;;;;;;;;5044087;28;20124;-67
2022/04/30 10:40:59;;;;;;;31.65;16.55;;;;;;;;;;5037706;28;20021;-68
2022/04/30 10:43:32;;;;;;;29.10;16.67;;;;;;;;;;5041557;28;20414;-67
2022/04/30 10:45:59;;;;;;;32.03;16.02;;;;;;;;;;5036394;28;20064;-67
2022/04/30 10:48:26;;;;;;;27.85;16.42;;;;;;;;;;5032775;28;20030;-67
2022/04/30 10:51:07;;;;;;;27.80;14.63;;;;;;;;;;5045981;28;20726;-67
2022/04/30 10:53:34;;;;;;;31.33;15.82;;;;;;;;;;5046081;28;20053;-67
2022/04/30 10:56:01;;;;;;;31.23;16.08;;;;;;;;;;5046181;28;20029;-68
2022/04/30 10:58:28;;;;;;;25.13;15.38;;;;;;;;;;5043857;28;20094;-66
2022/04/30 11:00:54;;;;;;;30.67;15.10;;;;;;;;;;5044066;28;20030;-66
2022/04/30 11:03:27;;;;;;;31.00;16.10;;;;;;;;;;5041861;28;20025;-68
2022/04/30 11:05:53;;;;;;;26.05;15.52;;;;;;;;;;5037541;28;20316;-67
2022/04/30 11:08:19;;;;;;;27.15;16.25;;;;;;;;;;5037484;28;20071;-67
2022/04/30 11:10:51;;;;;;;32.35;17.80;;;;;;;;;;5049546;28;20490;-68
2022/04/30 11:13:17;;;;;;;30.83;16.40;;;;;;;;;;5037195;28;20037;-66
2022/04/30 11:15:43;;;;;;;31.15;16.38;;;;;;;;;;5040974;28;20490;-67
2022/04/30 11:18:10;;;;;;;30.30;17.80;;;;;;;;;;5045587;28;20045;-67
2022/04/30 11:20:36;;;;;;;30.80;16.20;;;;;;;;;;5038740;28;20056;-67
2022/04/30 11:23:02;;;;;;;24.95;15.90;;;;;;;;;;5042486;28;20426;-67
2022/04/30 11:25:36;;;;;;;31.85;15.25;;;;;;;;;;5036584;28;20514;-67
2022/04/30 11:28:05;;;;;;;26.75;16.65;;;;;;;;;;5030134;28;20020;-67
2022/04/30 11:30:34;;;;;;;29.50;17.25;;;;;;;;;;5037335;28;20546;-66
2022/04/30 11:33:00;;;;;;;30.38;16.40;;;;;;;;;;5029676;28;20021;-67
2022/04/30 11:35:26;;;;;;;25.15;12.32;;;;;;;;;;5030408;28;20030;-66
2022/04/30 11:37:53;;;;;;;20.70;11.63;;;;;;;;;;5049279;28;20029;-67
2022/04/30 11:40:21;;;;;;;17.08;11.10;;;;;;;;;;5044209;28;20561;-68
2022/04/30 11:42:57;;;;;;;14.02;9.10;;;;;;;;;;5046618;28;20028;-66
2022/04/30 11:45:29;;;;;;;14.52;8.18;;;;;;;;;;5043013;28;20075;-67
2022/04/30 11:47:55;;;;;;;13.43;7.10;;;;;;;;;;5033939;28;20028;-67
2022/04/30 11:50:22;;;;;;;14.00;7.47;;;;;;;;;;5042150;28;20130;-67
2022/04/30 11:52:48;;;;;;;16.25;7.65;;;;;;;;;;5049898;28;20059;-67
2022/04/30 11:55:15;;;;;;;11.50;6.93;;;;;;;;;;5042270;28;20033;-67
2022/04/30 11:57:42;;;;;;;8.15;5.45;;;;;;;;;;5050287;28;20063;-67
2022/04/30 12:00:08;;;;;;;13.50;6.18;;;;;;;;;;5034155;28;20059;-68
2022/04/30 12:02:34;;;;;;;10.20;6.80;;;;;;;;;;5050151;28;20033;-67
2022/04/30 12:05:04;;;;;;;11.90;6.60;;;;;;;;;;5049995;28;20036;-66
2022/04/30 12:07:40;;;;;;;16.30;7.22;;;;;;;;;;5041383;28;20112;-67
2022/04/30 12:10:24;;;;;;;10.23;6.82;;;;;;;;;;5050348;28;20021;-67
2022/04/30 12:12:52;;;;;;;14.38;5.68;;;;;;;;;;5035801;28;20028;-67
2022/04/30 12:15:19;;;;;;;11.48;6.22;;;;;;;;;;5034770;28;20035;-68
2022/04/30 12:17:45;;;;;;;11.13;6.32;;;;;;;;;;5039307;28;20099;-67
2022/04/30 12:25:48;;;;;;;13.73;7.22;;;;;;;;;;5034874;28;20076;-66
2022/04/30 12:31:18;;;;;;;14.43;8.50;;;;;;;;;;5077728;22;20175;-64
2022/04/30 12:33:46;;;;;;;11.10;7.53;;;;;;;;;;4990956;28;20042;-65
2022/04/30 12:36:13;;;;;;;12.35;7.78;;;;;;;;;;5004249;28;20066;-64
2022/04/30 12:38:39;;;;;;;14.02;7.45;;;;;;;;;;4996274;28;20034;-65
2022/04/30 12:41:08;;;;;;;9.77;6.82;;;;;;;;;;4990230;28;20026;-65
2022/04/30 12:43:36;;;;;;;11.35;6.90;;;;;;;;;;4998136;28;20344;-65
2022/04/30 12:46:03;;;;;;;11.77;7.63;;;;;;;;;;5022528;28;20075;-65
2022/04/30 12:48:29;;;;;;;7.72;5.70;;;;;;;;;;5002735;28;20022;-64
2022/04/30 12:50:55;;;;;;;8.98;5.45;;;;;;;;;;4990091;28;20026;-65
2022/04/30 12:53:22;;;;;;;8.27;5.72;;;;;;;;;;4996165;28;20109;-65
2022/04/30 12:55:51;;;;;;;9.85;5.13;;;;;;;;;;5021178;28;20525;-65
2022/04/30 12:58:17;;;;;;;11.70;5.28;;;;;;;;;;4994997;28;20058;-65
2022/04/30 13:00:44;;;;;;;8.52;5.40;;;;;;;;;;5000098;28;20045;-65
2022/04/30 13:03:10;;;;;;;7.68;5.30;;;;;;;;;;4998666;28;20033;-65
2022/04/30 13:05:36;;;;;;;8.05;5.55;;;;;;;;;;5010397;28;20034;-65
2022/04/30 13:08:02;;;;;;;10.77;6.05;;;;;;;;;;5009380;28;20017;-64
2022/04/30 13:13:31;;;;;;;10.10;6.30;;;;;;;;;;5009229;28;20104;-64
2022/04/30 13:15:58;;;;;;;11.63;7.30;;;;;;;;;;5020012;28;20399;-65
2022/04/30 13:18:24;;;;;;;13.13;7.65;;;;;;;;;;4998055;28;20030;-65
2022/04/30 13:20:50;;;;;;;11.52;7.68;;;;;;;;;;5005459;28;20030;-64
2022/04/30 13:23:16;;;;;;;12.23;7.28;;;;;;;;;;4997970;28;20033;-65
2022/04/30 13:25:42;;;;;;;12.35;8.10;;;;;;;;;;4997016;28;20041;-65
2022/04/30 13:28:08;;;;;;;11.95;8.18;;;;;;;;;;5001055;28;20092;-65
2022/04/30 13:30:34;;;;;;;14.48;9.40;;;;;;;;;;4998291;28;20033;-65
2022/04/30 13:33:00;;;;;;;15.25;9.15;;;;;;;;;;4998082;28;20642;-66
2022/04/30 13:35:26;;;;;;;15.90;10.27;;;;;;;;;;4988209;28;20422;-65
2022/04/30 13:37:54;;;;;;;17.77;9.77;;;;;;;;;;5004263;28;20022;-64
2022/04/30 13:40:20;;;;;;;15.70;10.50;;;;;;;;;;4997360;28;20026;-65
2022/04/30 13:42:46;;;;;;;21.40;11.38;;;;;;;;;;5018533;28;20391;-64
2022/04/30 13:45:13;;;;;;;19.02;11.70;;;;;;;;;;5022296;28;20379;-65
2022/04/30 13:47:39;;;;;;;19.25;10.95;;;;;;;;;;5001047;28;20022;-64
2022/04/30 13:50:06;;;;;;;18.73;10.95;;;;;;;;;;4992097;28;20028;-64
2022/04/30 13:52:32;;;;;;;16.50;10.68;;;;;;;;;;5000250;28;20045;-64
2022/04/30 13:54:58;;;;;;;17.10;9.90;;;;;;;;;;5006379;28;20030;-65
2022/04/30 13:57:24;;;;;;;14.98;9.52;;;;;;;;;;5000896;28;20045;-64
2022/04/30 13:59:50;;;;;;;17.05;10.82;;;;;;;;;;5000044;28;20042;-65
2022/04/30 14:02:16;;;;;;;17.60;10.32;;;;;;;;;;5007821;28;20030;-64
2022/04/30 14:04:42;;;;;;;14.52;8.82;;;;;;;;;;4992089;28;20035;-66
2022/04/30 14:07:09;;;;;;;19.40;10.25;;;;;;;;;;5007506;28;20100;-65
2022/04/30 14:09:35;;;;;;;15.80;8.85;;;;;;;;;;4993320;28;20029;-64
2022/04/30 14:12:03;;;;;;;12.85;8.93;;;;;;;;;;4996236;28;20030;-66
2022/04/30 14:19:59;;;;;;;13.85;8.80;;;;;;;;;;5008128;28;20061;-64
2022/04/30 14:22:25;;;;;;;15.65;7.53;;;;;;;;;;4994396;28;20026;-65
2022/04/30 14:24:51;;;;;;;11.65;7.35;;;;;;;;;;5000166;28;20046;-65
2022/04/30 14:27:18;;;;;;;9.40;6.50;;;;;;;;;;5007212;28;20470;-64
2022/04/30 14:29:44;;;;;;;12.27;6.88;;;;;;;;;;5008314;28;20058;-66
2022/04/30 14:32:11;;;;;;;8.32;5.70;;;;;;;;;;4994125;28;20060;-64
2022/04/30 14:34:37;;;;;;;12.35;7.20;;;;;;;;;;5000281;28;20037;-65
2022/04/30 14:37:03;;;;;;;9.55;6.43;;;;;;;;;;5004750;28;20022;-64
2022/04/30 14:39:29;;;;;;;12.38;6.70;;;;;;;;;;4988579;28;20387;-65
2022/04/30 14:41:55;;;;;;;9.65;6.18;;;;;;;;;;5006288;28;20025;-64
2022/04/30 14:44:22;;;;;;;8.35;5.80;;;;;;;;;;4992378;28;20447;-65
2022/04/30 14:46:48;;;;;;;8.25;5.50;;;;;;;;;;4991944;28;20034;-65
2022/04/30 14:49:14;;;;;;;9.90;5.65;;;;;;;;;;5008804;28;20030;-64
2022/04/30 14:51:42;;;;;;;10.25;5.25;;;;;;;;;;4999941;28;20072;-65
2022/04/30 14:54:08;;;;;;;8.18;5.28;;;;;;;;;;5000564;28;20102;-64
2022/04/30 14:56:34;;;;;;;6.72;5.22;;;;;;;;;;5014747;28;20062;-64
2022/04/30 14:59:00;;;;;;;7.80;5.22;;;;;;;;;;5006234;28;20113;-65
2022/04/30 15:01:26;;;;;;;6.90;4.75;;;;;;;;;;5011629;28;20069;-64
2022/04/30 15:03:52;;;;;;;7.00;4.82;;;;;;;;;;5012417;28;20036;-65
2022/04/30 15:06:18;;;;;;;8.05;4.93;;;;;;;;;;5011111;28;20033;-64
2022/04/30 15:08:44;;;;;;;6.65;4.53;;;;;;;;;;5004006;28;20026;-64
2022/04/30 15:11:10;;;;;;;6.85;4.72;;;;;;;;;;5023506;28;20106;-64
2022/04/30 15:13:36;;;;;;;8.35;4.88;;;;;;;;;;5000126;28;20058;-64
2022/04/30 15:16:02;;;;;;;6.70;4.70;;;;;;;;;;5000948;28;20034;-64
2022/04/30 15:18:28;;;;;;;8.27;4.88;;;;;;;;;;5011625;28;20036;-65
2022/04/30 15:20:54;;;;;;;7.40;4.35;;;;;;;;;;5001992;28;20064;-65
2022/04/30 15:23:21;;;;;;;5.55;4.15;;;;;;;;;;4998779;28;20053;-65
2022/04/30 15:25:51;;;;;;;7.18;4.18;;;;;;;;;;5009981;28;20033;-64